Time;durP1;ratioP1;P1;durP2;ratioP2;P2;SDS_P1;SDS_P2;PMS_P1;PMS_P2;Temp;Humidity;BMP_temperature;BMP_pressure;BME280_temperature;BME280_humidity;BME280_pressure;Samples;Min_cycle;Max_cycle;Signal;HPM_P1;HPM_P2
2021/12/19 00:02:13;;;;;;;2.50;1.10;;;;;;;19.37;54.13;103810.66;5028678;28;20547;-73
2021/12/19 00:09:53;;;;;;;2.10;0.80;;;;;;;19.29;54.07;103806.63;5013822;28;20577;-73
2021/12/19 00:12:19;;;;;;;2.42;0.82;;;;;;;19.30;53.25;103800.34;5009965;28;20041;-74
2021/12/19 00:14:44;;;;;;;1.83;0.80;;;;;;;19.27;53.93;103797.81;5028558;28;20044;-73
2021/12/19 00:17:10;;;;;;;2.45;0.93;;;;;;;19.25;53.63;103795.25;5027144;28;20046;-73
2021/12/19 00:19:35;;;;;;;2.38;0.73;;;;;;;19.21;53.55;103792.78;5030612;28;20035;-73
2021/12/19 00:22:01;;;;;;;1.85;0.77;;;;;;;19.25;53.55;103789.06;5030132;28;20067;-72
2021/12/19 00:24:26;;;;;;;1.80;0.80;;;;;;;19.24;54.22;103789.97;5048290;28;20519;-73
2021/12/19 00:26:52;;;;;;;1.95;0.80;;;;;;;19.22;53.86;103791.88;5048437;28;20045;-73
2021/12/19 00:29:17;;;;;;;2.45;0.80;;;;;;;19.18;53.13;103788.50;5045243;28;20079;-73
2021/12/19 00:31:46;;;;;;;2.53;0.90;;;;;;;19.21;53.79;103776.81;5022825;28;20104;-73
2021/12/19 00:34:15;;;;;;;1.70;0.90;;;;;;;19.16;53.55;103775.25;5027869;28;20128;-73
2021/12/19 00:36:41;;;;;;;2.00;0.82;;;;;;;19.18;53.27;103778.72;5010936;28;20046;-73
2021/12/19 00:39:07;;;;;;;1.98;0.80;;;;;;;19.17;53.83;103779.63;5027866;28;20037;-72
2021/12/19 00:41:32;;;;;;;2.03;0.98;;;;;;;19.15;53.84;103770.88;5010605;28;20107;-73
2021/12/19 00:44:08;;;;;;;2.08;0.77;;;;;;;19.12;53.12;103773.66;5028405;28;20034;-73
2021/12/19 00:46:42;;;;;;;2.10;0.77;;;;;;;19.10;53.56;103767.53;5027891;28;20104;-73
2021/12/19 00:49:08;;;;;;;1.73;0.70;;;;;;;19.11;53.25;103763.94;5027427;28;20037;-73
2021/12/19 00:51:33;;;;;;;2.15;0.73;;;;;;;19.10;53.19;103759.56;5010489;28;20469;-73
2021/12/19 00:53:59;;;;;;;1.10;0.60;;;;;;;19.08;53.88;103763.22;5027604;28;20056;-73
2021/12/19 00:56:25;;;;;;;1.83;0.70;;;;;;;19.10;53.58;103764.03;5027460;28;20042;-72
2021/12/19 00:58:51;;;;;;;1.70;0.70;;;;;;;19.09;52.96;103762.31;5010378;28;20045;-73
2021/12/19 01:01:16;;;;;;;1.25;0.65;;;;;;;19.07;53.43;103754.38;5027283;28;20046;-72
2021/12/19 01:03:44;;;;;;;2.17;0.60;;;;;;;19.06;53.07;103760.66;4993737;28;20041;-73
2021/12/19 01:06:09;;;;;;;1.35;0.60;;;;;;;19.05;53.12;103760.69;5026038;28;20091;-73
2021/12/19 01:08:35;;;;;;;0.90;0.50;;;;;;;19.03;53.77;103758.13;5009187;28;20041;-73
2021/12/19 01:11:00;;;;;;;1.27;0.65;;;;;;;19.04;53.46;103754.53;5028068;28;20055;-73
2021/12/19 01:13:26;;;;;;;1.52;0.75;;;;;;;19.04;52.96;103754.53;5009647;28;20805;-74
2021/12/19 01:15:53;;;;;;;1.67;0.70;;;;;;;19.02;53.43;103750.19;5027743;28;20133;-73
2021/12/19 01:18:18;;;;;;;1.52;0.60;;;;;;;19.02;53.31;103750.19;5028324;28;20064;-73
2021/12/19 01:20:44;;;;;;;1.40;0.70;;;;;;;18.97;53.00;103742.44;5027246;28;20029;-73
2021/12/19 01:23:09;;;;;;;1.33;0.70;;;;;;;18.97;53.41;103741.59;5027490;28;20402;-73
2021/12/19 01:25:35;;;;;;;2.90;0.70;;;;;;;18.93;53.41;103738.22;4993756;28;20042;-73
2021/12/19 01:28:00;;;;;;;1.55;0.57;;;;;;;18.95;53.69;103744.31;5028662;28;20785;-69
2021/12/19 01:30:26;;;;;;;1.20;0.55;;;;;;;18.94;53.31;103742.59;5031312;28;20051;-73
2021/12/19 01:32:51;;;;;;;1.92;0.70;;;;;;;18.88;53.69;103733.09;5013606;28;20405;-73
2021/12/19 01:35:20;;;;;;;1.20;0.57;;;;;;;18.91;53.68;103737.41;5030832;28;20052;-73
2021/12/19 01:37:46;;;;;;;1.35;0.60;;;;;;;18.89;53.22;103734.81;4997593;28;20042;-73
2021/12/19 01:40:12;;;;;;;1.25;0.50;;;;;;;18.87;52.96;103730.50;5030489;28;20532;-73
2021/12/19 01:42:39;;;;;;;1.33;0.57;;;;;;;18.88;52.98;103734.88;5013578;28;20425;-73
2021/12/19 01:45:06;;;;;;;1.98;0.73;;;;;;;18.89;53.37;103737.47;5030798;28;20067;-72
2021/12/19 01:47:31;;;;;;;1.25;0.50;;;;;;;18.93;53.46;103730.22;5031170;28;20037;-73
2021/12/19 01:49:57;;;;;;;1.17;0.60;;;;;;;18.86;53.24;103734.94;5031238;28;20042;-73
2021/12/19 01:52:23;;;;;;;1.70;0.50;;;;;;;18.84;53.47;103726.19;5030604;28;20046;-72
2021/12/19 01:54:49;;;;;;;1.48;0.60;;;;;;;18.86;52.97;103728.75;4996957;28;20082;-73
2021/12/19 01:57:14;;;;;;;1.63;0.90;;;;;;;18.82;53.55;103728.03;5030854;28;20030;-73
2021/12/19 01:59:40;;;;;;;1.15;0.60;;;;;;;18.85;52.97;103732.38;5030911;28;20512;-73
2021/12/19 02:02:05;;;;;;;1.02;0.52;;;;;;;18.85;52.97;103724.38;5030554;28;20398;-72
2021/12/19 02:04:32;;;;;;;1.65;0.70;;;;;;;18.83;53.10;103727.09;5030507;28;20504;-73
2021/12/19 02:06:58;;;;;;;1.67;0.80;;;;;;;18.84;53.54;103722.66;5030762;28;20045;-73
2021/12/19 02:09:25;;;;;;;1.27;0.60;;;;;;;18.85;53.22;103721.72;5012715;28;20512;-73
2021/12/19 02:11:50;;;;;;;1.63;0.60;;;;;;;18.82;53.21;103721.88;5012953;28;20038;-73
2021/12/19 02:14:15;;;;;;;1.50;0.75;;;;;;;18.80;53.43;103723.72;5029968;28;20421;-73
2021/12/19 02:16:41;;;;;;;1.20;0.50;;;;;;;18.80;53.37;103716.59;5012678;28;20069;-73
2021/12/19 02:19:08;;;;;;;1.25;0.50;;;;;;;18.80;53.23;103713.94;5034506;28;20088;-73
2021/12/19 02:21:33;;;;;;;1.95;0.60;;;;;;;18.76;52.91;103712.38;5030734;28;20060;-72
2021/12/19 02:24:01;;;;;;;1.35;0.50;;;;;;;18.78;53.21;103709.66;5030917;28;20486;-73
2021/12/19 02:26:26;;;;;;;1.30;0.70;;;;;;;18.78;53.16;103713.16;5029943;28;20568;-73
2021/12/19 02:28:52;;;;;;;1.10;0.50;;;;;;;18.76;52.77;103703.53;5030416;28;20064;-73
2021/12/19 02:31:17;;;;;;;1.45;0.50;;;;;;;18.75;52.99;103702.66;5011851;28;20053;-72
2021/12/19 02:33:55;;;;;;;1.08;0.50;;;;;;;18.74;52.68;103698.28;5029187;28;20041;-73
2021/12/19 02:36:29;;;;;;;1.15;0.52;;;;;;;18.76;52.78;103690.22;5029975;28;20661;-72
2021/12/19 02:49:48;;;;;;;0.63;0.40;;;;;;;18.69;53.05;103669.19;5015072;28;20048;-73
2021/12/19 02:52:16;;;;;;;0.85;0.40;;;;;;;18.67;52.81;103657.75;5029225;28;20132;-73
2021/12/19 02:54:41;;;;;;;0.93;0.45;;;;;;;18.68;53.26;103656.84;5029831;28;20099;-73
2021/12/19 02:57:06;;;;;;;1.05;0.47;;;;;;;18.67;52.79;103652.44;5029177;28;20037;-72
2021/12/19 02:59:32;;;;;;;0.93;0.52;;;;;;;18.65;53.40;103645.50;5029830;28;20492;-72
2021/12/19 03:01:58;;;;;;;0.88;0.50;;;;;;;18.66;53.30;103656.03;5029789;28;20033;-72
2021/12/19 03:04:23;;;;;;;0.93;0.43;;;;;;;18.66;53.02;103655.19;4995448;28;20044;-72
2021/12/19 03:06:49;;;;;;;1.75;0.60;;;;;;;18.60;53.04;103656.31;5012224;28;20038;-72
2021/12/19 03:09:34;;;;;;;1.02;0.45;;;;;;;18.59;53.24;103656.41;5029286;28;20436;-72
2021/12/19 03:12:14;;;;;;;1.08;0.60;;;;;;;18.60;52.77;103651.00;5014421;28;20131;-73
2021/12/19 03:20:08;;;;;;;1.33;0.40;;;;;;;18.60;53.07;103627.06;5048960;28;20516;-72
2021/12/19 03:22:34;;;;;;;1.20;0.43;;;;;;;18.60;52.79;103635.06;5022355;28;20050;-73
2021/12/19 03:24:59;;;;;;;0.82;0.47;;;;;;;18.59;53.01;103635.13;5008613;28;20045;-73
2021/12/19 03:27:25;;;;;;;0.50;0.40;;;;;;;18.58;53.22;103634.25;5010990;28;20406;-73
2021/12/19 03:29:50;;;;;;;1.42;0.40;;;;;;;18.55;53.23;103626.44;5011339;28;20489;-73
2021/12/19 03:32:16;;;;;;;1.10;0.60;;;;;;;18.54;53.46;103627.34;5010152;28;20478;-73
2021/12/19 03:34:41;;;;;;;0.90;0.32;;;;;;;18.52;52.71;103631.00;5011355;28;20037;-73
2021/12/19 03:37:07;;;;;;;0.75;0.47;;;;;;;18.53;53.18;103625.66;5010917;28;20405;-72
2021/12/19 03:39:55;;;;;;;0.60;0.40;;;;;;;18.49;53.33;103622.28;5011336;28;20076;-72
2021/12/19 03:42:22;;;;;;;0.55;0.40;;;;;;;18.52;53.20;103621.28;5013777;28;20239;-73
2021/12/19 03:44:47;;;;;;;1.00;0.50;;;;;;;18.51;52.98;103611.53;5028653;28;20493;-72
2021/12/19 03:47:13;;;;;;;1.08;0.50;;;;;;;18.47;52.82;103607.31;5028758;28;20033;-72
2021/12/19 03:49:38;;;;;;;0.60;0.43;;;;;;;18.50;53.00;103604.50;5029000;28;20069;-72
2021/12/19 03:52:04;;;;;;;1.55;0.43;;;;;;;18.50;52.75;103600.06;5028182;28;20498;-72
2021/12/19 03:54:29;;;;;;;1.88;0.43;;;;;;;18.46;52.67;103606.47;5028500;28;20041;-72
2021/12/19 03:56:54;;;;;;;0.93;0.40;;;;;;;18.44;53.30;103594.16;5028912;28;20034;-72
2021/12/19 03:59:20;;;;;;;0.45;0.30;;;;;;;18.40;52.76;103596.09;5028333;28;20490;-72
2021/12/19 04:01:50;;;;;;;0.60;0.30;;;;;;;18.43;52.87;103581.81;5027371;28;20056;-72
2021/12/19 04:04:15;;;;;;;1.10;0.50;;;;;;;18.42;52.89;103596.03;5028482;28;20036;-72
2021/12/19 04:06:41;;;;;;;0.75;0.30;;;;;;;18.45;52.83;103595.88;5011083;28;20037;-72
2021/12/19 04:09:06;;;;;;;0.88;0.40;;;;;;;18.39;52.90;103585.53;5028153;28;20738;-72
2021/12/19 04:11:32;;;;;;;0.98;0.40;;;;;;;18.40;53.02;103579.31;5028525;28;20932;-73
2021/12/19 04:13:57;;;;;;;0.90;0.30;;;;;;;18.36;52.78;103572.38;5028399;28;20045;-72
2021/12/19 04:16:22;;;;;;;0.70;0.40;;;;;;;18.41;52.76;103575.69;5028274;28;20409;-73
2021/12/19 04:18:48;;;;;;;0.38;0.30;;;;;;;18.38;53.18;103567.88;5041955;28;20059;-73
2021/12/19 04:21:14;;;;;;;0.80;0.32;;;;;;;18.39;52.84;103567.78;5048012;28;20293;-73
2021/12/19 04:23:40;;;;;;;0.60;0.32;;;;;;;18.38;53.12;103559.88;5032324;28;20386;-73
2021/12/19 04:26:06;;;;;;;0.75;0.40;;;;;;;18.40;52.85;103560.69;5010049;28;20215;-71
2021/12/19 04:28:31;;;;;;;0.75;0.40;;;;;;;18.39;52.52;103557.16;5010298;28;20564;-72
2021/12/19 04:30:59;;;;;;;0.50;0.20;;;;;;;18.38;52.70;103552.78;5010638;28;20034;-72
2021/12/19 04:33:26;;;;;;;0.80;0.35;;;;;;;18.36;52.65;103551.13;5010490;28;20042;-73
2021/12/19 04:35:59;;;;;;;0.43;0.30;;;;;;;18.34;52.82;103545.03;5028063;28;20069;-73
2021/12/19 04:41:43;;;;;;;1.10;0.22;;;;;;;18.36;53.08;103553.78;5027897;28;20036;-72
2021/12/19 04:58:00;;;;;;;1.77;0.30;;;;;;;18.32;53.18;103552.19;5009541;28;20038;-73
2021/12/19 05:00:06;;;;;;;1.85;0.38;;;;;;;18.31;52.86;103556.66;5019797;28;20124;-73
2021/12/19 05:06:22;;;;;;;0.40;0.30;;;;;;;18.31;52.57;103547.81;5031468;28;20083;-73
2021/12/19 05:16:24;;;;;;;0.45;0.30;;;;;;;18.22;52.86;103562.41;5016375;28;20128;-73
2021/12/19 05:18:51;;;;;;;0.90;0.30;;;;;;;18.20;53.13;103565.09;5045185;28;20036;-73
2021/12/19 05:21:21;;;;;;;0.75;0.30;;;;;;;18.20;52.94;103558.94;5033434;28;20120;-73
2021/12/19 05:24:05;;;;;;;0.88;0.40;;;;;;;18.23;52.86;103556.13;5051555;28;20079;-72
2021/12/19 05:26:31;;;;;;;0.28;0.20;;;;;;;18.23;52.69;103558.78;5025914;28;20623;-73
2021/12/19 05:28:57;;;;;;;0.60;0.30;;;;;;;18.19;52.64;103547.44;5031550;28;20228;-73
2021/12/19 05:31:22;;;;;;;0.50;0.30;;;;;;;18.18;52.89;103551.06;5030672;28;20038;-73
2021/12/19 05:33:48;;;;;;;0.90;0.30;;;;;;;18.21;52.90;103550.06;5031418;28;20099;-72
2021/12/19 05:46:53;;;;;;;0.60;0.30;;;;;;;18.13;52.89;103528.28;5016102;28;20072;-73
2021/12/19 05:49:18;;;;;;;0.52;0.30;;;;;;;18.13;52.64;103531.78;5030726;28;20045;-73
2021/12/19 05:51:44;;;;;;;0.20;0.20;;;;;;;18.16;52.77;103533.44;5013331;28;20133;-73
2021/12/19 05:54:10;;;;;;;0.52;0.30;;;;;;;18.14;52.58;103544.13;5030443;28;20132;-73
2021/12/19 05:56:36;;;;;;;0.60;0.30;;;;;;;18.11;52.33;103530.97;5030661;28;20049;-73
2021/12/19 05:59:01;;;;;;;1.05;0.40;;;;;;;18.09;52.87;103532.00;5012754;28;20041;-71
2021/12/19 06:01:26;;;;;;;0.50;0.25;;;;;;;18.13;52.68;103536.25;5030905;28;20044;-73
2021/12/19 06:03:52;;;;;;;0.35;0.30;;;;;;;18.11;52.76;103538.94;5030769;28;20063;-73
2021/12/19 06:06:17;;;;;;;0.68;0.30;;;;;;;18.08;52.63;103532.91;5012036;28;20042;-73
2021/12/19 06:08:43;;;;;;;0.20;0.20;;;;;;;18.04;52.78;103533.06;5012950;28;20421;-73
2021/12/19 06:11:08;;;;;;;0.50;0.30;;;;;;;18.08;52.92;103533.78;5030249;28;20045;-72
2021/12/19 06:13:34;;;;;;;0.75;0.30;;;;;;;18.06;52.74;103521.53;5030273;28;20061;-73
2021/12/19 06:15:59;;;;;;;0.68;0.22;;;;;;;18.07;52.69;103526.75;5012396;28;20037;-73
2021/12/19 06:18:25;;;;;;;0.20;0.20;;;;;;;18.09;52.66;103519.59;5040525;28;20086;-73
2021/12/19 06:20:50;;;;;;;1.30;0.30;;;;;;;18.15;52.48;103507.81;5050526;28;20563;-73
2021/12/19 06:23:16;;;;;;;0.50;0.30;;;;;;;18.19;52.39;103515.56;5049826;28;20048;-72
2021/12/19 06:25:45;;;;;;;1.85;0.30;;;;;;;18.21;52.30;103505.72;5049932;28;20133;-73
2021/12/19 06:28:12;;;;;;;0.30;0.27;;;;;;;18.29;52.37;103513.34;5011474;28;20490;-73
2021/12/19 06:30:38;;;;;;;0.43;0.30;;;;;;;18.35;52.52;103504.22;5030102;28;20049;-72
2021/12/19 06:33:03;;;;;;;0.43;0.30;;;;;;;18.45;52.12;103510.81;5029792;28;20038;-71
2021/12/19 06:35:30;;;;;;;0.80;0.20;;;;;;;18.49;52.38;103513.25;5030188;28;20076;-73
2021/12/19 06:37:55;;;;;;;0.40;0.20;;;;;;;18.57;52.80;103510.22;5011407;28;20512;-72
2021/12/19 06:40:21;;;;;;;0.75;0.20;;;;;;;18.66;52.19;103504.47;5049558;28;20043;-72
2021/12/19 06:42:47;;;;;;;0.40;0.20;;;;;;;18.77;51.90;103503.09;5032255;28;20040;-72
2021/12/19 06:45:13;;;;;;;0.30;0.15;;;;;;;18.93;51.47;103496.97;5031988;28;20837;-72
2021/12/19 06:47:38;;;;;;;0.30;0.20;;;;;;;19.01;51.84;103501.88;5038417;28;20044;-73
2021/12/19 06:50:05;;;;;;;0.20;0.20;;;;;;;19.06;51.75;103491.88;5012054;28;20038;-73
2021/12/19 06:52:30;;;;;;;0.30;0.20;;;;;;;19.09;51.78;103490.88;4996350;28;20537;-73
2021/12/19 06:54:56;;;;;;;0.50;0.10;;;;;;;19.10;50.95;103490.78;5030114;28;20038;-73
2021/12/19 06:57:21;;;;;;;0.20;0.10;;;;;;;19.13;51.11;103492.41;5028462;28;20076;-73
2021/12/19 06:59:47;;;;;;;0.20;0.10;;;;;;;19.14;51.23;103495.00;5029904;28;20121;-73
2021/12/19 07:02:15;;;;;;;0.45;0.20;;;;;;;19.17;51.38;103491.31;4995531;28;20470;-73
2021/12/19 07:04:41;;;;;;;0.70;0.20;;;;;;;19.19;50.98;103484.13;5029759;28;20076;-72
2021/12/19 07:07:07;;;;;;;0.17;0.17;;;;;;;19.22;51.71;103489.28;5029134;28;20116;-72
2021/12/19 07:09:32;;;;;;;0.30;0.13;;;;;;;19.25;51.22;103485.63;5011399;28;20391;-73
2021/12/19 07:11:57;;;;;;;0.32;0.10;;;;;;;19.26;51.64;103490.00;5029586;28;20048;-73
2021/12/19 07:14:23;;;;;;;0.90;0.10;;;;;;;19.27;51.14;103487.22;5011440;28;20038;-73
2021/12/19 07:16:48;;;;;;;0.20;0.10;;;;;;;19.29;51.52;103484.50;5028869;28;20045;-73
2021/12/19 07:19:14;;;;;;;0.20;0.20;;;;;;;19.29;51.56;103477.38;5019156;28;20029;-70
2021/12/19 07:21:39;;;;;;;0.40;0.20;;;;;;;19.31;50.89;103478.16;5029560;28;20045;-71
2021/12/19 07:24:05;;;;;;;0.57;0.20;;;;;;;19.32;51.65;103479.88;5029081;28;20033;-71
2021/12/19 07:26:30;;;;;;;0.30;0.20;;;;;;;19.31;51.53;103479.97;5028932;28;20456;-71
2021/12/19 07:28:56;;;;;;;0.22;0.20;;;;;;;19.35;52.06;103486.84;5028713;28;20045;-71
2021/12/19 07:31:22;;;;;;;0.50;0.20;;;;;;;19.32;52.24;103487.00;5009437;28;20060;-71
2021/12/19 07:33:48;;;;;;;0.22;0.10;;;;;;;19.33;52.24;103470.94;5011372;28;20489;-71
2021/12/19 07:36:13;;;;;;;1.88;0.20;;;;;;;19.36;51.45;103475.25;5027285;28;20099;-71
2021/12/19 07:38:51;;;;;;;0.75;0.20;;;;;;;19.38;51.19;103479.56;5011318;28;20117;-71
2021/12/19 07:41:17;;;;;;;0.65;0.20;;;;;;;19.37;51.40;103475.19;5010485;28;20053;-71
2021/12/19 07:43:42;;;;;;;0.80;0.20;;;;;;;19.39;51.82;103465.28;5028934;28;20038;-71
2021/12/19 07:46:08;;;;;;;0.75;0.20;;;;;;;19.40;52.13;103468.84;5028604;28;20044;-71
2021/12/19 07:48:33;;;;;;;1.25;0.20;;;;;;;19.42;52.00;103469.59;5028955;28;20033;-71
2021/12/19 07:50:59;;;;;;;0.40;0.10;;;;;;;19.43;52.07;103474.00;5011397;28;20037;-72
2021/12/19 07:53:24;;;;;;;0.60;0.20;;;;;;;19.43;51.85;103471.34;5028127;28;20111;-71
2021/12/19 07:55:49;;;;;;;0.82;0.20;;;;;;;19.42;51.50;103472.28;5028799;28;20065;-71
2021/12/19 07:58:15;;;;;;;0.70;0.20;;;;;;;19.42;51.90;103467.81;5010748;28;20044;-73
2021/12/19 08:00:40;;;;;;;0.57;0.20;;;;;;;19.46;52.46;103468.53;5007213;28;20038;-71
2021/12/19 08:03:06;;;;;;;2.65;0.20;;;;;;;19.48;51.95;103466.63;5034966;28;20412;-70
2021/12/19 08:05:31;;;;;;;0.73;0.20;;;;;;;19.47;51.86;103467.56;5033309;28;20045;-70
2021/12/19 08:08:01;;;;;;;1.75;0.20;;;;;;;19.45;52.17;103455.28;4999249;28;20041;-71
2021/12/19 08:12:58;;;;;;;3.45;0.20;;;;;;;19.44;52.81;103461.56;5029049;28;20064;-71
2021/12/19 08:15:24;;;;;;;3.30;0.30;;;;;;;19.45;52.41;103447.28;5009940;28;20450;-72
2021/12/19 08:17:49;;;;;;;1.50;0.30;;;;;;;19.47;52.45;103459.59;5033738;28;20045;-72
2021/12/19 08:20:17;;;;;;;2.92;0.30;;;;;;;19.46;53.20;103455.22;5029822;28;20029;-72
2021/12/19 08:22:43;;;;;;;3.45;0.28;;;;;;;19.46;52.91;103465.88;5006482;28;20551;-73
2021/12/19 08:25:08;;;;;;;1.60;0.30;;;;;;;19.45;53.42;103461.47;5009493;28;20037;-73
2021/12/19 08:27:34;;;;;;;2.85;0.30;;;;;;;19.42;53.26;103449.16;5026781;28;20037;-73
2021/12/19 08:30:00;;;;;;;2.00;0.20;;;;;;;19.40;52.90;103455.53;4995405;28;20042;-74
2021/12/19 08:32:26;;;;;;;2.60;0.40;;;;;;;19.39;53.17;103451.13;5013235;28;20136;-73
2021/12/19 08:34:51;;;;;;;3.72;0.35;;;;;;;19.43;53.96;103455.38;5009929;28;20052;-73
2021/12/19 08:37:17;;;;;;;1.40;0.30;;;;;;;19.45;53.37;103455.28;5027092;28;20029;-73
2021/12/19 08:39:43;;;;;;;4.78;0.60;;;;;;;19.44;53.23;103449.09;5005938;28;20038;-63
2021/12/19 08:42:09;;;;;;;2.03;0.50;;;;;;;19.31;53.74;103442.72;5033183;28;20029;-63
2021/12/19 08:44:35;;;;;;;2.30;0.40;;;;;;;19.20;54.43;103437.94;5026618;28;20037;-64
2021/12/19 08:47:00;;;;;;;3.88;0.30;;;;;;;19.14;53.97;103439.09;5009853;28;20089;-65
2021/12/19 08:49:26;;;;;;;4.93;0.30;;;;;;;19.11;53.69;103438.41;5030027;28;20148;-64
2021/12/19 08:51:51;;;;;;;5.53;0.40;;;;;;;19.11;54.25;103435.75;5032627;28;20481;-64
2021/12/19 08:54:17;;;;;;;1.35;0.32;;;;;;;19.07;53.30;103440.38;5045081;28;20073;-64
2021/12/19 08:56:42;;;;;;;2.45;0.50;;;;;;;19.09;53.81;103438.50;5012467;28;20512;-64
2021/12/19 08:59:09;;;;;;;2.28;0.30;;;;;;;19.09;53.12;103441.16;5033526;28;20476;-64
2021/12/19 09:01:36;;;;;;;2.50;0.52;;;;;;;19.15;53.43;103438.19;5010322;28;20030;-64
2021/12/19 09:04:01;;;;;;;2.13;0.40;;;;;;;19.21;52.77;103430.78;5027533;28;20062;-67
2021/12/19 09:06:26;;;;;;;3.80;0.28;;;;;;;19.01;52.51;103432.69;5009641;28;20130;-65
2021/12/19 09:08:52;;;;;;;4.95;0.32;;;;;;;19.02;52.71;103430.91;5027617;28;20374;-65
2021/12/19 09:11:17;;;;;;;3.92;0.35;;;;;;;19.07;53.31;103429.72;5034678;28;20485;-65
2021/12/19 09:13:43;;;;;;;2.78;0.40;;;;;;;19.06;52.44;103425.34;5024177;28;20127;-65
2021/12/19 09:16:08;;;;;;;3.20;0.55;;;;;;;19.08;52.65;103422.59;5014524;28;20512;-65
2021/12/19 09:18:34;;;;;;;2.40;0.40;;;;;;;19.08;52.46;103434.09;5039165;28;20041;-65
2021/12/19 09:20:59;;;;;;;1.38;0.30;;;;;;;19.09;52.95;103433.19;5041325;28;20039;-65
2021/12/19 09:23:27;;;;;;;1.70;0.30;;;;;;;19.08;52.23;103433.25;5012422;28;20037;-65
2021/12/19 09:25:52;;;;;;;4.25;1.02;;;;;;;19.07;52.92;103435.03;5027766;28;20096;-65
2021/12/19 09:28:18;;;;;;;1.92;0.40;;;;;;;19.06;53.09;103433.34;5026913;28;20045;-65
2021/12/19 09:30:44;;;;;;;3.28;0.47;;;;;;;19.06;52.21;103429.81;5009985;28;20490;-65
2021/12/19 09:33:09;;;;;;;2.65;0.40;;;;;;;19.04;52.90;103423.72;5009347;28;20084;-65
2021/12/19 09:35:35;;;;;;;1.67;0.60;;;;;;;19.06;52.24;103424.50;5013517;28;20068;-65
2021/12/19 09:38:01;;;;;;;2.83;0.60;;;;;;;19.06;52.89;103428.00;5033976;28;20034;-67
2021/12/19 09:40:33;;;;;;;1.40;0.50;;;;;;;19.09;52.87;103419.88;5026171;28;20405;-65
2021/12/19 09:43:02;;;;;;;1.63;0.45;;;;;;;19.10;52.59;103428.72;5038838;28;20055;-65
2021/12/19 09:45:28;;;;;;;2.05;0.52;;;;;;;19.10;52.57;103426.06;5046642;28;20033;-65
2021/12/19 09:47:53;;;;;;;3.30;0.50;;;;;;;19.09;52.66;103427.84;5013810;28;20041;-65
2021/12/19 09:50:19;;;;;;;4.90;0.55;;;;;;;19.08;52.47;103431.44;5030402;28;20049;-65
2021/12/19 09:52:45;;;;;;;3.60;0.70;;;;;;;19.10;52.36;103424.25;5029762;28;20033;-65
2021/12/19 09:55:11;;;;;;;4.88;0.82;;;;;;;19.11;52.27;103431.28;5030839;28;20359;-65
2021/12/19 09:57:37;;;;;;;2.33;0.90;;;;;;;19.08;52.69;103419.94;5040605;28;20044;-65
2021/12/19 10:00:04;;;;;;;5.88;0.75;;;;;;;19.08;51.96;103423.44;5029420;28;20117;-65
2021/12/19 10:02:29;;;;;;;3.38;0.60;;;;;;;19.06;52.08;103414.72;5041561;28;20041;-65
2021/12/19 10:04:55;;;;;;;1.80;0.57;;;;;;;19.07;51.77;103424.41;5035213;28;20030;-65
2021/12/19 10:07:28;;;;;;;4.60;0.70;;;;;;;19.06;52.11;103420.03;5018441;28;20418;-65
2021/12/19 10:10:03;;;;;;;3.45;0.77;;;;;;;19.14;52.12;103424.94;4997085;28;20034;-65
2021/12/19 10:14:58;;;;;;;4.20;0.60;;;;;;;19.07;52.40;103415.56;5030639;28;20425;-65
2021/12/19 10:17:23;;;;;;;2.65;0.60;;;;;;;19.07;52.41;103419.09;5041316;28;20037;-65
2021/12/19 10:19:49;;;;;;;2.63;0.50;;;;;;;19.09;52.10;103417.22;5030981;28;20041;-65
2021/12/19 10:22:34;;;;;;;6.97;1.02;;;;;;;19.18;52.16;103410.56;5030105;28;20061;-65
2021/12/19 10:25:18;;;;;;;5.13;0.80;;;;;;;19.11;52.26;103415.31;5030241;28;20083;-65
2021/12/19 10:27:54;;;;;;;5.00;0.98;;;;;;;19.09;52.12;103411.88;5029905;28;20149;-65
2021/12/19 10:30:34;;;;;;;4.50;0.88;;;;;;;19.14;52.38;103396.53;5029792;28;20041;-65
2021/12/19 10:33:00;;;;;;;4.67;0.90;;;;;;;19.13;52.90;103397.47;5029977;28;20128;-64
2021/12/19 10:35:40;;;;;;;5.38;0.82;;;;;;;19.20;51.98;103403.31;5029845;28;20048;-65
2021/12/19 10:38:15;;;;;;;3.35;0.75;;;;;;;19.27;52.61;103406.53;5015067;28;20106;-76
2021/12/19 10:40:49;;;;;;;3.70;0.82;;;;;;;19.21;52.09;103396.19;5014866;28;20048;-78
2021/12/19 10:43:17;;;;;;;3.38;0.85;;;;;;;19.21;52.82;103397.09;5012056;28;20052;-79
2021/12/19 10:45:47;;;;;;;3.50;0.82;;;;;;;19.18;52.85;103390.13;5011916;28;20167;-78
2021/12/19 10:48:29;;;;;;;7.18;0.90;;;;;;;19.24;52.47;103393.38;5029625;28;20152;-80
2021/12/19 10:51:00;;;;;;;3.63;1.15;;;;;;;19.25;52.18;103392.47;5029714;28;20095;-79
2021/12/19 10:53:28;;;;;;;7.53;1.05;;;;;;;19.14;52.68;103388.53;5010485;28;20053;-77
2021/12/19 10:55:53;;;;;;;4.75;1.05;;;;;;;19.29;52.28;103386.03;4991433;28;20037;-74
2021/12/19 10:58:21;;;;;;;4.82;0.90;;;;;;;19.31;52.71;103386.81;5011643;28;20051;-76
2021/12/19 11:00:55;;;;;;;6.35;1.65;;;;;;;19.35;53.70;103380.38;5019263;28;20040;-74
2021/12/19 11:03:57;;;;;;;5.72;0.93;;;;;;;19.34;54.61;103383.97;5010232;28;20063;-75
2021/12/19 11:06:39;;;;;;;5.07;1.30;;;;;;;19.30;54.21;103383.25;4997971;28;20045;-75
2021/12/19 11:09:13;;;;;;;4.03;1.13;;;;;;;19.37;54.60;103382.00;5027615;28;20046;-74
2021/12/19 11:11:57;;;;;;;2.95;0.75;;;;;;;19.33;54.25;103376.91;5011805;28;20041;-75
2021/12/19 11:14:37;;;;;;;5.57;1.15;;;;;;;19.35;54.03;103370.56;5028670;28;20132;-75
2021/12/19 11:17:04;;;;;;;3.15;0.95;;;;;;;19.41;55.48;103364.06;5028687;28;20041;-74
2021/12/19 11:19:30;;;;;;;4.05;1.15;;;;;;;19.44;54.81;103363.91;5024571;28;20098;-75
2021/12/19 11:21:55;;;;;;;3.92;1.00;;;;;;;19.44;55.33;103358.56;5030026;28;20033;-62
2021/12/19 11:24:22;;;;;;;4.10;0.82;;;;;;;19.47;54.57;103358.41;5026940;28;20550;-71
2021/12/19 11:26:49;;;;;;;2.85;0.80;;;;;;;19.45;54.99;103354.09;5038445;28;20072;-71
2021/12/19 11:29:14;;;;;;;4.90;0.80;;;;;;;19.18;51.70;103352.84;5028779;28;20033;-69
2021/12/19 11:31:42;;;;;;;5.05;0.95;;;;;;;19.12;54.23;103353.19;5052582;28;20047;-78
2021/12/19 11:34:24;;;;;;;3.78;0.90;;;;;;;19.11;52.79;103342.59;5049695;28;20049;-75
2021/12/19 11:37:07;;;;;;;4.95;1.00;;;;;;;19.17;53.92;103340.47;5010530;28;20072;-76
2021/12/19 11:39:34;;;;;;;3.83;0.73;;;;;;;19.24;54.02;103345.47;5013122;28;20075;-76
2021/12/19 11:42:47;;;;;;;4.32;0.93;;;;;;;19.25;53.49;103331.25;4997724;28;20041;-72
2021/12/19 11:45:28;;;;;;;2.38;0.60;;;;;;;19.32;54.03;103333.47;5033580;28;20037;-63
2021/12/19 11:47:59;;;;;;;8.63;1.20;;;;;;;19.37;54.09;103334.09;5065790;28;20036;-77
2021/12/19 11:50:30;;;;;;;4.05;0.85;;;;;;;19.35;53.99;103322.66;5049185;28;20037;-76
2021/12/19 11:53:07;;;;;;;5.68;1.40;;;;;;;19.34;54.56;103325.41;5025151;28;20084;-76
2021/12/19 11:55:35;;;;;;;3.60;0.73;;;;;;;19.38;55.45;103316.31;5044374;28;20090;-73
2021/12/19 11:58:12;;;;;;;8.77;1.55;;;;;;;19.43;57.49;103308.94;5035393;28;20125;-67
2021/12/19 12:00:53;;;;;;;7.18;1.00;;;;;;;19.40;57.21;103309.13;5066405;28;20086;-74
2021/12/19 12:03:21;;;;;;;22.02;1.27;;;;;;;19.40;56.77;103301.13;5037264;28;20049;-72
2021/12/19 12:05:53;;;;;;;8.32;1.17;;;;;;;19.39;57.08;103296.72;5045148;28;20133;-73
2021/12/19 12:08:23;;;;;;;6.30;1.10;;;;;;;19.35;57.89;103298.69;5015088;28;20049;-73
2021/12/19 12:10:52;;;;;;;4.67;0.80;;;;;;;19.33;57.89;103297.91;5021013;28;20040;-74
2021/12/19 12:13:25;;;;;;;6.95;1.10;;;;;;;19.34;57.79;103298.78;5035828;28;20042;-73
2021/12/19 12:15:52;;;;;;;6.10;1.00;;;;;;;19.33;57.62;103289.94;5041334;28;20043;-74
2021/12/19 12:18:37;;;;;;;5.75;1.20;;;;;;;19.32;57.50;103280.22;5027546;28;20357;-76
2021/12/19 12:23:57;;;;;;;5.88;0.95;;;;;;;19.37;57.56;103282.66;5041052;28;20053;-70
2021/12/19 12:26:35;;;;;;;3.60;0.95;;;;;;;19.38;56.75;103284.38;5011883;28;20042;-70
2021/12/19 12:29:00;;;;;;;6.40;1.10;;;;;;;19.38;56.83;103284.38;5031271;28;20496;-70
2021/12/19 12:31:26;;;;;;;5.93;1.00;;;;;;;19.36;57.41;103276.44;5011124;28;20041;-70
2021/12/19 12:33:52;;;;;;;3.72;0.80;;;;;;;19.37;55.75;103278.19;5028078;28;20668;-63
2021/12/19 12:36:18;;;;;;;5.05;0.82;;;;;;;19.32;57.68;103274.06;5021207;28;20156;-64